Terminal Aerodrome Forecast
Issued by NWS Sterling, VA

Current Version | Previous Version | Graphics & Text | Print | Product List | Glossary On
Versions: 1 2 3 4 5 6 7 8 9 10 11 12 13 14 15 16 17 18 19 20 21 22 23 24 25 26 27 28
325
FTUS41 KLWX 240525
TAFDCA
TAF
KDCA 240525Z 2406/2506 27004KT P6SM BKN110
     FM240800 33004KT P6SM SCT110
     FM241200 03005KT P6SM FEW250
     FM241600 10004KT P6SM FEW050
     FM241900 16004KT P6SM SCT050
     FM250000 14005KT P6SM SCT250=

USA.gov is the U.S. government's official web portal to all federal, state and local government web resources and services.